Oregon City, California
Current Conditions -  °F | °C
As of 4:53 PM on Wednesday 22 Oct 2014 (Local Time) from KOVE Reporting Station
Clear Clear  
Wind Chill: 72°   Ceiling: Unl
Heat Index: 72°   Visibility: 10mi
Dew Point: 42°   Wind: 6mph
Humidity: 34%   Direction: 170°S
Pressure: 29.99"   Gusts: NA
Location:  39.5324°N, 121.648°W
Report Text: KOVE 222353Z AUTO 17005KT 10SM CLR 22/06 A2999 RMK AO2 SLP159 T02220056 10233 20178 56018 $
Loading
Personal Weather Stations






























Interactive Weather Map
Tropical Storm Tracking
New forecast layout! Learn more

10-Day Weather Forecast

Advertisements
Track Severe Weather on mobile